Hauptseite
METAR-TAF:

METAR-TAF

Flughäfen :

Flughafen Paris-Charles-de-Gaulle

Paris-Charles De Gaulle, Frankreich

Breite: 49-01N, Länge: 002-32E, Höhe: 118 m

Beobachtung

Neuester Wetterbericht von vor 25 Minuten, um 14:30 UTC
Wind 9 kt aus Nordost, variierte zwischen Nord und Ost/Nordost
Temperatur 22°C
Luftfeuchtigkeit 33%
Luftdruck 1025 hPa
Sichtweite 10 km oder mehr
keine Wolken unter 1500 m und keine Kumulonimbus oder Gewitterwolken

METAR: LFPG 111430Z 04009KT 010V070 CAVOK 22/05 Q1025 NOSIG

Zeit: 16:55 (14:55 UTC)

Prognose

Neuester Wetterbericht von vor 3 Stunden und 55 Minuten, um 11:00 UTC
Gültige Prognose vom 11 um 12 UTC bis 12 um 18 UTC
Wind 10 kt aus Nord
Sichtweite 10 km oder mehr
keine Wolken unter 1500 m und keine Kumulonimbus oder Gewitterwolken

TAF: LFPG 111100Z 1112/1218 36010KT CAVOK TX26/1215Z TN12/1204Z

Wetterbeobachtungen und Prognosen von mehr als 4000 Flughäfen (METAR und TAF Bericht).

Die verfügbaren Stationen werden durch gelbe und rote Markierungen auf der Karte dargestellt.

Führen Sie die Maus auf sie, um den Namen der Station zu sehen.

Darauf klicken, um die Beobachtung von Wetterbeobachtungen und Prognosen zu sehen.

Um die Karte zu ändern : klicken Sie auf den grünen Tasten mit einem schwarzen Kreuz Zum Vergrößern, auf den grünen Button mit einem Gedankenstrich zu verkleinern, oder auf die grünen Pfeile für benachbarte Karten.


METAR-TAF: